(°C)
23°
24°
26°
27°
29°
29°
28°
(°C)
24°
26°
27°
28°
28°
27°
26°
ΝΔ
ΝΔ
ΝΑ
ΝΝΑ
ΝΝΑ
ΝΝΑ
Ν
(χλμ / ω)
5-11
5-19
7-14
11-18
14-26
15-29
17-31
(χιλιοστά)
0
0
0.8
0
0
0
0
(%)
10
27
43
23
32
30
35

Ανύψωση ήλιου

/ 57.4°
sun-icon
UV 4
05:27
20:54
Φθίνων αμφίκυρτος (φάση σελήνης) (279°)
02:53
13:13

METAR για Ίνσμπρουκ (LOWI)

Χρόνος Συνθήκες Θερμοκρασία/
Σημείο δρόσου
Άνεμος Ορατότητα Καιρός Νέφη Πίεση Αλλαγή Ανεπεξέργαστο
VFR 21°C / 13°C variable 2kt >10km - Scattered Clouds 10000ft 1009 No Significant change LOWI 230850Z VRB02KT 9999 SCT100 21/13 Q1009 NOSIG
VFR 20°C / 14°C 300º variable 260º to 340º 4kt >10km - Scattered Clouds 10000ft 1009 No Significant change LOWI 230820Z 30004KT 260V340 9999 SCT100 20/14 Q1009 NOSIG
VFR 18°C / 14°C 290º variable 260º to 330º 8kt >10km - Broken Clouds 10000ft 1010 No Significant change LOWI 230750Z 29008KT 260V330 9999 BKN100 18/14 Q1010 NOSIG
VFR 18°C / 14°C 270º 8kt >10km - Broken Clouds 10000ft 1010 Temporary: Showers Rain . LOWI 230720Z 27008KT 9999 BKN100 18/14 Q1010 TEMPO SHRA
VFR 17°C / 14°C 280º 5kt >10km - Few Clouds 1500ft
Scattered Clouds 12000ft
1010 Temporary: from 0730 Showers Rain . LOWI 230650Z 28005KT 9999 FEW015 SCT120 17/14 Q1010 TEMPO FM0730 SHRA
VFR 16°C / 14°C 290º 7kt >10km - Few Clouds 1500ft
Scattered Clouds 12000ft
1010 No Significant change LOWI 230620Z 29007KT 9999 FEW015 SCT120 16/14 Q1010 NOSIG
VFR 15°C / 14°C 280º 4kt >10km - Few Clouds 1000ft 1010 No Significant change LOWI 230550Z 28004KT 9999 FEW010 15/14 Q1010 NOSIG
VFR 15°C / 13°C 270º 3kt >10km - Few Clouds 1000ft 1010 No Significant change LOWI 230520Z 27003KT 9999 FEW010 15/13 Q1010 NOSIG
VFR 14°C / 13°C 270º variable 240º to 320º 3kt >10km - Few Clouds 1000ft 1010 No Significant change LOWI 230450Z 27003KT 240V320 9999 FEW010 14/13 Q1010 NOSIG
VFR 14°C / 13°C 250º variable 150º to 280º 3kt >10km - Few Clouds 1000ft 1011 No Significant change LOWI 230420Z 25003KT 150V280 9999 FEW010 14/13 Q1011 NOSIG
VFR 14°C / 13°C variable 2kt >10km - Few Clouds 1000ft 1011 No Significant change LOWI 230350Z VRB02KT 9999 FEW010 14/13 Q1011 NOSIG
VFR 14°C / 13°C variable 2kt >10km - Few Clouds 9000ft 1011 - LOWI 230320Z AUTO VRB02KT 9999 FEW090 14/13 Q1011
VFR 14°C / 13°C variable 2kt >10km - Few Clouds 12000ft 1011 - LOWI 230250Z AUTO VRB02KT 9999 FEW120 14/13 Q1011
VFR 14°C / 13°C 190º variable 160º to 240º 3kt >10km - Scattered Clouds 12000ft 1012 - LOWI 230220Z AUTO 19003KT 160V240 9999 SCT120 14/13 Q1012
VFR 15°C / 14°C 290º 3kt >10km - Few Clouds 9000ft
Broken Clouds 12000ft
1012 - LOWI 230150Z AUTO 29003KT 9999 FEW090 BKN120 15/14 Q1012
VFR 15°C / 14°C 260º 3kt >10km - Scattered Clouds 10000ft
Broken Clouds 12000ft
1012 - LOWI 230120Z AUTO 26003KT 9999 SCT100 BKN120 15/14 Q1012
VFR 14°C / 13°C 200º variable 170º to 230º 3kt >10km - Few Clouds 11000ft
Broken Clouds 12000ft
1012 - LOWI 230050Z AUTO 20003KT 170V230 9999 FEW110 BKN120 14/13 Q1012
VFR 15°C / 14°C 320º variable 290º to 350º 4kt >10km - Few Clouds 500ft
Broken Clouds 11000ft
1012 - LOWI 230020Z AUTO 32004KT 290V350 9999 FEW005 BKN110 15/14 Q1012
VFR 14°C / 13°C variable 2kt >10km - Broken Clouds 11000ft 1013 - LOWI 222350Z AUTO VRB02KT 9999 BKN110 14/13 Q1013
VFR 15°C / 14°C 250º variable 200º to 300º 3kt >10km - Clear 1013 - LOWI 222320Z AUTO 25003KT 200V300 9999 NSC 15/14 Q1013
VFR 15°C / 14°C 360º variable 260º to 030º 3kt >10km - Clear 1013 - LOWI 222250Z AUTO 36003KT 260V030 9999 NCD 15/14 Q1013
VFR 15°C / 14°C 220º variable 160º to 270º 4kt >10km - Clear 1013 - LOWI 222220Z AUTO 22004KT 160V270 9999 NCD 15/14 Q1013
VFR 16°C / 15°C 290º variable 260º to 330º 4kt >10km - Clear 1013 - LOWI 222150Z AUTO 29004KT 260V330 9999 NSC 16/15 Q1013
VFR 17°C / 15°C 280º 3kt >10km - Few Clouds 12000ft 1014 - LOWI 222120Z AUTO 28003KT 9999 FEW120 17/15 Q1014

VFR

21°C / 13°C

[Περισσότερο]
Άνεμος variable 2kt
Ορατότητα >10km
Καιρός -
Νέφη Scattered Clouds 10000ft
Πίεση 1009
Αλλαγή No Significant change
Ανεπεξέργαστο LOWI 230850Z VRB02KT 9999 SCT100 21/13 Q1009 NOSIG

VFR

20°C / 14°C

[Περισσότερο]
Άνεμος 300º variable 260º to 340º 4kt
Ορατότητα >10km
Καιρός -
Νέφη Scattered Clouds 10000ft
Πίεση 1009
Αλλαγή No Significant change
Ανεπεξέργαστο LOWI 230820Z 30004KT 260V340 9999 SCT100 20/14 Q1009 NOSIG

VFR

18°C / 14°C

[Περισσότερο]
Άνεμος 290º variable 260º to 330º 8kt
Ορατότητα >10km
Καιρός -
Νέφη Broken Clouds 10000ft
Πίεση 1010
Αλλαγή No Significant change
Ανεπεξέργαστο LOWI 230750Z 29008KT 260V330 9999 BKN100 18/14 Q1010 NOSIG

VFR

18°C / 14°C

[Περισσότερο]
Άνεμος 270º 8kt
Ορατότητα >10km
Καιρός -
Νέφη Broken Clouds 10000ft
Πίεση 1010
Αλλαγή Temporary: Showers Rain .
Ανεπεξέργαστο LOWI 230720Z 27008KT 9999 BKN100 18/14 Q1010 TEMPO SHRA

VFR

17°C / 14°C

[Περισσότερο]
Άνεμος 280º 5kt
Ορατότητα >10km
Καιρός -
Νέφη Few Clouds 1500ft
Scattered Clouds 12000ft
Πίεση 1010
Αλλαγή Temporary: from 0730 Showers Rain .
Ανεπεξέργαστο LOWI 230650Z 28005KT 9999 FEW015 SCT120 17/14 Q1010 TEMPO FM0730 SHRA

VFR

16°C / 14°C

[Περισσότερο]
Άνεμος 290º 7kt
Ορατότητα >10km
Καιρός -
Νέφη Few Clouds 1500ft
Scattered Clouds 12000ft
Πίεση 1010
Αλλαγή No Significant change
Ανεπεξέργαστο LOWI 230620Z 29007KT 9999 FEW015 SCT120 16/14 Q1010 NOSIG

VFR

15°C / 14°C

[Περισσότερο]
Άνεμος 280º 4kt
Ορατότητα >10km
Καιρός -
Νέφη Few Clouds 1000ft
Πίεση 1010
Αλλαγή No Significant change
Ανεπεξέργαστο LOWI 230550Z 28004KT 9999 FEW010 15/14 Q1010 NOSIG

VFR

15°C / 13°C

[Περισσότερο]
Άνεμος 270º 3kt
Ορατότητα >10km
Καιρός -
Νέφη Few Clouds 1000ft
Πίεση 1010
Αλλαγή No Significant change
Ανεπεξέργαστο LOWI 230520Z 27003KT 9999 FEW010 15/13 Q1010 NOSIG

VFR

14°C / 13°C

[Περισσότερο]
Άνεμος 270º variable 240º to 320º 3kt
Ορατότητα >10km
Καιρός -
Νέφη Few Clouds 1000ft
Πίεση 1010
Αλλαγή No Significant change
Ανεπεξέργαστο LOWI 230450Z 27003KT 240V320 9999 FEW010 14/13 Q1010 NOSIG

VFR

14°C / 13°C

[Περισσότερο]
Άνεμος 250º variable 150º to 280º 3kt
Ορατότητα >10km
Καιρός -
Νέφη Few Clouds 1000ft
Πίεση 1011
Αλλαγή No Significant change
Ανεπεξέργαστο LOWI 230420Z 25003KT 150V280 9999 FEW010 14/13 Q1011 NOSIG

VFR

14°C / 13°C

[Περισσότερο]
Άνεμος variable 2kt
Ορατότητα >10km
Καιρός -
Νέφη Few Clouds 1000ft
Πίεση 1011
Αλλαγή No Significant change
Ανεπεξέργαστο LOWI 230350Z VRB02KT 9999 FEW010 14/13 Q1011 NOSIG

VFR

14°C / 13°C

[Περισσότερο]
Άνεμος variable 2kt
Ορατότητα >10km
Καιρός -
Νέφη Few Clouds 9000ft
Πίεση 1011
Αλλαγή -
Ανεπεξέργαστο LOWI 230320Z AUTO VRB02KT 9999 FEW090 14/13 Q1011

VFR

14°C / 13°C

[Περισσότερο]
Άνεμος variable 2kt
Ορατότητα >10km
Καιρός -
Νέφη Few Clouds 12000ft
Πίεση 1011
Αλλαγή -
Ανεπεξέργαστο LOWI 230250Z AUTO VRB02KT 9999 FEW120 14/13 Q1011

VFR

14°C / 13°C

[Περισσότερο]
Άνεμος 190º variable 160º to 240º 3kt
Ορατότητα >10km
Καιρός -
Νέφη Scattered Clouds 12000ft
Πίεση 1012
Αλλαγή -
Ανεπεξέργαστο LOWI 230220Z AUTO 19003KT 160V240 9999 SCT120 14/13 Q1012

VFR

15°C / 14°C

[Περισσότερο]
Άνεμος 290º 3kt
Ορατότητα >10km
Καιρός -
Νέφη Few Clouds 9000ft
Broken Clouds 12000ft
Πίεση 1012
Αλλαγή -
Ανεπεξέργαστο LOWI 230150Z AUTO 29003KT 9999 FEW090 BKN120 15/14 Q1012

VFR

15°C / 14°C

[Περισσότερο]
Άνεμος 260º 3kt
Ορατότητα >10km
Καιρός -
Νέφη Scattered Clouds 10000ft
Broken Clouds 12000ft
Πίεση 1012
Αλλαγή -
Ανεπεξέργαστο LOWI 230120Z AUTO 26003KT 9999 SCT100 BKN120 15/14 Q1012

VFR

14°C / 13°C

[Περισσότερο]
Άνεμος 200º variable 170º to 230º 3kt
Ορατότητα >10km
Καιρός -
Νέφη Few Clouds 11000ft
Broken Clouds 12000ft
Πίεση 1012
Αλλαγή -
Ανεπεξέργαστο LOWI 230050Z AUTO 20003KT 170V230 9999 FEW110 BKN120 14/13 Q1012

VFR

15°C / 14°C

[Περισσότερο]
Άνεμος 320º variable 290º to 350º 4kt
Ορατότητα >10km
Καιρός -
Νέφη Few Clouds 500ft
Broken Clouds 11000ft
Πίεση 1012
Αλλαγή -
Ανεπεξέργαστο LOWI 230020Z AUTO 32004KT 290V350 9999 FEW005 BKN110 15/14 Q1012

VFR

14°C / 13°C

[Περισσότερο]
Άνεμος variable 2kt
Ορατότητα >10km
Καιρός -
Νέφη Broken Clouds 11000ft
Πίεση 1013
Αλλαγή -
Ανεπεξέργαστο LOWI 222350Z AUTO VRB02KT 9999 BKN110 14/13 Q1013

VFR

15°C / 14°C

[Περισσότερο]
Άνεμος 250º variable 200º to 300º 3kt
Ορατότητα >10km
Καιρός -
Νέφη Clear
Πίεση 1013
Αλλαγή -
Ανεπεξέργαστο LOWI 222320Z AUTO 25003KT 200V300 9999 NSC 15/14 Q1013

VFR

15°C / 14°C

[Περισσότερο]
Άνεμος 360º variable 260º to 030º 3kt
Ορατότητα >10km
Καιρός -
Νέφη Clear
Πίεση 1013
Αλλαγή -
Ανεπεξέργαστο LOWI 222250Z AUTO 36003KT 260V030 9999 NCD 15/14 Q1013

VFR

15°C / 14°C

[Περισσότερο]
Άνεμος 220º variable 160º to 270º 4kt
Ορατότητα >10km
Καιρός -
Νέφη Clear
Πίεση 1013
Αλλαγή -
Ανεπεξέργαστο LOWI 222220Z AUTO 22004KT 160V270 9999 NCD 15/14 Q1013

VFR

16°C / 15°C

[Περισσότερο]
Άνεμος 290º variable 260º to 330º 4kt
Ορατότητα >10km
Καιρός -
Νέφη Clear
Πίεση 1013
Αλλαγή -
Ανεπεξέργαστο LOWI 222150Z AUTO 29004KT 260V330 9999 NSC 16/15 Q1013

VFR

17°C / 15°C

[Περισσότερο]
Άνεμος 280º 3kt
Ορατότητα >10km
Καιρός -
Νέφη Few Clouds 12000ft
Πίεση 1014
Αλλαγή -
Ανεπεξέργαστο LOWI 222120Z AUTO 28003KT 9999 FEW120 17/15 Q1014

TAF για Ίνσμπρουκ (LOWI)

From till


Maximum Temperature 26ºC on . Minimum Temperature 16ºC on .
From till Wind 270º 8kt. Visibility 10km or more. Few Clouds 8000ft.
Temporarly from till Wind 90º 10kt. Few Clouds 8000ft.
With 30% probability, Temporarly from till Wind variable 15kt. Gust 25kt. Thunderstorm Rain . Scattered Clouds 5000ft. Broken Clouds 6000ft.
Temporarly from till Wind 250º 15kt. Gust 25kt. Thunderstorm Rain . Scattered Clouds 2000ft. Broken Clouds 4000ft.

Ανεπεξέργαστο: TAF LOWI 230515Z 2306/2406 27008KT 9999 FEW080 TX26/2313Z TN16/2306Z TEMPO 2307/2319 09010KT FEW080CB PROB30 TEMPO 2313/2318 VRB15G25KT TSRA SCT050CB BKN060 TEMPO 2318/2406 25015G25KT TSRA SCT020 BKN040CB

Ραντάρ για Ίνσμπρουκ

Ψιλοβρέχει
Φως
Μέτρια
Βαριά
Πολύ βαρύ
Χαλάζι

Ο δείκτης θέσης τοποθετείται στο Ίνσμπρουκ. Αυτή η κινούμενη εικόνα δείχνει την ραντάρ βροχόπτωσης για την τελευταία ώρα, καθώς και 2πρόγνωση h. Το ψιλόβροχο ή το ελαφρύ χιόνι μπορεί να είναι αόρατο για το ραντάρ. Η ένταση της βροχόπτωσης είναι χρωματικά κωδικοποιημένη και κυμαίνεται από γαλάζιο έως πορτοκαλί.
Copyright 2022 Deutscher Wetterdienst / meteoblue.

Τρέχουσες εικόνες δορυφόρου και βροχής για Ίνσμπρουκ, Αυστρία

Η ένδειξη τοποθεσίας τοποθετείται στο Ίνσμπρουκ. [Περισσότερο]

Οι δορυφορικές εικόνες σε πραγματικό χρόνο συνδυάζουν ορατό φως κατά τη διάρκεια της ημέρας με υπέρυθρη ακτινοβολία κατά τη διάρκεια της νύχτας. Κατά τη διάρκεια της νύχτας, η εικόνα δεν είναι σκοτεινή μιας και η υπέρυθρη ακτινοβολία μπορεί να εντοπίσει τις διαφορές στη θερμοκρασία. Δυστυχώς, είναι δύσκολο να ξεχωρίσουν οι χαμηλές νεφώσεις και η ομίχλη από τις θερμοκρασίες εδάφους και έτσι μπορεί να είναι σχετικά αόρατα κατά τη διάρκεια της νύχτας. Οι εικόνες από τον δορυφόρο Meteosat για την Ευρώπη ενημερώνονται σε πραγματικό χρόνο κάθε 5 λεπτά. Οι εικόνες από τους δορυφόρους GOES-16/GOES-17 (Βόρεια & Λατινική Αμερική) και Himawari (Ασία) ενημερώνονται κάθε 10 λεπτά.

Ο υετός υπολογίζεται από ραντάρ και δορυφόρους. Η εκτιμήση του υετού από δορυφόρους τη νύχτα είναι λιγότερο ακριβής από ό,τι την ημέρα. Με πορτοκαλί σταυροούς οι θέσεις όπου αστραπές εντοπίζονται (για Ευρώπη).

Πνευματική ιδιοκτησία 2022 EUMETSAT / meteoblue. Δεδομένα αστραπών παρεχόμενα από nowcast.

Επιστροφή στην κορυφή